Time;durP1;ratioP1;P1;durP2;ratioP2;P2;SDS_P1;SDS_P2;PMS_P1;PMS_P2;Temp;Humidity;BMP_temperature;BMP_pressure;BME280_temperature;BME280_humidity;BME280_pressure;Samples;Min_cycle;Max_cycle;Signal;HPM_P1;HPM_P2
2022/02/06 00:00:52;;;;;;;6.70;2.35;;;;;;;3.09;59.46;100131.48;1746708;80;21070;-59
2022/02/06 00:03:21;;;;;;;6.90;2.45;;;;;;;3.09;59.41;100141.87;1737528;80;21086;-59
2022/02/06 00:05:49;;;;;;;6.12;2.72;;;;;;;3.11;59.41;100138.73;1766565;79;20985;-59
2022/02/06 00:08:15;;;;;;;7.75;3.00;;;;;;;3.16;59.27;100141.92;1773435;79;21023;-59
2022/02/06 00:10:43;;;;;;;8.08;3.22;;;;;;;3.17;59.15;100145.35;1765089;79;21062;-60
2022/02/06 00:13:09;;;;;;;10.30;3.30;;;;;;;3.17;59.16;100138.86;1747642;80;21606;-59
2022/02/06 00:15:37;;;;;;;7.25;2.95;;;;;;;3.14;59.25;100143.77;1761285;79;21712;-59
2022/02/06 00:18:04;;;;;;;6.55;2.98;;;;;;;3.15;59.36;100143.30;1761035;79;22218;-59
2022/02/06 00:20:37;;;;;;;8.78;3.20;;;;;;;3.15;59.42;100131.13;1762934;79;21322;-59
2022/02/06 00:23:05;;;;;;;8.30;3.17;;;;;;;3.21;59.33;100133.89;1763081;79;21054;-59
2022/02/06 00:25:53;;;;;;;6.58;3.10;;;;;;;3.20;59.13;100135.27;1749502;80;21599;-59
2022/02/06 00:28:22;;;;;;;5.47;2.40;;;;;;;3.21;59.18;100136.92;1748134;80;22246;-59
2022/02/06 00:35:59;;;;;;;6.75;3.58;;;;;;;3.11;59.44;100136.13;1767392;79;20992;-59
2022/02/06 00:39:02;;;;;;;7.20;3.42;;;;;;;3.13;59.42;100141.25;1754796;79;21843;-59
2022/02/06 00:43:35;;;;;;;7.70;2.83;;;;;;;3.13;59.43;100138.18;1761820;79;20996;-58
2022/02/06 00:46:04;;;;;;;7.12;2.75;;;;;;;3.12;59.51;100142.98;1747079;79;21140;-59
2022/02/06 00:48:33;;;;;;;6.75;2.75;;;;;;;3.12;59.52;100144.29;1764914;79;21547;-59
2022/02/06 00:51:06;;;;;;;9.13;3.15;;;;;;;3.12;59.54;100132.59;1737457;80;21086;-59
2022/02/06 00:53:27;;;;;;;9.90;3.85;;;;;;;3.18;59.53;100134.48;1756004;79;21144;-59
2022/02/06 00:55:53;;;;;;;7.10;3.08;;;;;;;3.21;59.43;100131.73;1751264;79;20980;-59
2022/02/06 00:58:20;;;;;;;7.72;3.27;;;;;;;3.20;59.37;100135.27;1759241;79;21048;-59
2022/02/06 01:00:48;;;;;;;8.83;2.77;;;;;;;3.18;59.38;100128.84;1753604;79;21067;-59
2022/02/06 01:03:16;;;;;;;9.15;3.85;;;;;;;3.19;59.43;100129.67;1752137;79;21117;-59
2022/02/06 01:05:42;;;;;;;6.12;3.17;;;;;;;3.15;59.48;100132.43;1739243;80;21105;-59
2022/02/06 01:08:09;;;;;;;10.35;3.42;;;;;;;3.16;59.44;100126.77;1745877;79;21067;-59
2022/02/06 01:10:35;;;;;;;8.63;3.58;;;;;;;3.16;59.49;100129.36;1764970;80;21134;-59
2022/02/06 01:13:16;;;;;;;6.22;2.90;;;;;;;3.13;59.54;100129.08;1723015;81;21035;-59
2022/02/06 01:15:34;;;;;;;6.30;2.58;;;;;;;3.13;59.54;100136.88;1735158;80;21094;-59
2022/02/06 01:18:04;;;;;;;5.80;2.10;;;;;;;3.12;59.64;100131.29;1733543;80;21574;-58
2022/02/06 01:20:35;;;;;;;8.13;3.08;;;;;;;3.11;59.66;100131.37;1674465;85;21119;-59
2022/02/06 01:23:07;;;;;;;9.83;3.42;;;;;;;3.11;59.73;100127.03;1704295;82;21058;-59
2022/02/06 01:25:35;;;;;;;5.67;2.55;;;;;;;3.12;59.69;100123.96;1674654;83;21525;-59
2022/02/06 01:28:06;;;;;;;6.80;2.83;;;;;;;3.13;59.70;100121.28;1666990;83;21162;-60
2022/02/06 01:33:09;;;;;;;8.43;3.00;;;;;;;3.08;59.84;100114.19;1636783;85;21537;-59
2022/02/06 01:35:32;;;;;;;6.17;3.05;;;;;;;3.09;59.84;100120.22;1699643;82;21094;-60
2022/02/06 01:40:53;;;;;;;6.22;2.55;;;;;;;3.00;60.07;100141.05;1702432;82;21070;-59
2022/02/06 01:43:00;;;;;;;6.75;2.90;;;;;;;3.03;60.11;100133.09;1664195;83;21222;-59
2022/02/06 02:04:52;;;;;;;7.58;2.95;;;;;;;2.96;60.64;100127.84;1738770;80;21685;-59
2022/02/06 02:10:06;;;;;;;9.58;3.30;;;;;;;2.98;60.71;100127.30;1725008;80;21794;-60
2022/02/06 02:13:00;;;;;;;9.08;2.92;;;;;;;3.02;60.67;100125.37;1738728;80;21105;-58
2022/02/06 02:15:04;;;;;;;7.00;3.02;;;;;;;3.04;60.65;100129.55;1690683;80;21046;-60
2022/02/06 02:27:59;;;;;;;7.72;3.33;;;;;;;3.02;60.93;100127.97;1713433;82;21619;-59
2022/02/06 02:45:18;;;;;;;6.45;2.75;;;;;;;2.97;61.45;100138.61;1741599;80;21559;-59
2022/02/06 02:47:41;;;;;;;5.45;2.65;;;;;;;2.97;61.54;100138.13;1769458;80;21009;-59
2022/02/06 02:50:18;;;;;;;8.93;2.77;;;;;;;3.01;61.60;100143.17;1745875;80;20986;-60
2022/02/06 02:55:28;;;;;;;7.75;3.35;;;;;;;3.05;61.65;100149.91;1743707;80;21023;-60
2022/02/06 02:57:50;;;;;;;7.03;3.25;;;;;;;3.06;61.64;100149.83;1772595;80;21046;-59
2022/02/06 03:03:13;;;;;;;7.92;3.65;;;;;;;3.08;61.66;100151.88;1744927;80;21473;-59
2022/02/06 03:05:32;;;;;;;7.83;2.70;;;;;;;3.08;61.78;100158.38;1761691;79;21078;-58
2022/02/06 03:08:03;;;;;;;7.15;2.87;;;;;;;3.11;61.70;100153.47;1742621;80;21042;-58
2022/02/06 03:10:27;;;;;;;6.75;3.30;;;;;;;3.10;61.72;100150.04;1768936;80;21064;-59
2022/02/06 03:12:55;;;;;;;7.62;3.25;;;;;;;3.10;61.73;100146.14;1754171;80;21081;-59
2022/02/06 03:15:36;;;;;;;7.15;3.20;;;;;;;3.06;61.89;100173.23;1767253;80;21128;-59
2022/02/06 03:17:58;;;;;;;9.38;3.17;;;;;;;3.07;61.91;100144.99;1764233;80;21555;-59
2022/02/06 03:20:21;;;;;;;9.55;3.52;;;;;;;3.06;61.93;100134.23;1765436;80;21036;-59
2022/02/06 03:22:51;;;;;;;12.68;4.00;;;;;;;3.05;61.97;100139.52;1747008;80;21024;-59
2022/02/06 03:25:20;;;;;;;7.45;3.25;;;;;;;3.06;61.96;100145.94;1736791;81;21145;-59
2022/02/06 03:27:48;;;;;;;7.20;3.05;;;;;;;3.07;61.97;100142.39;1702157;82;21868;-60
2022/02/06 03:30:15;;;;;;;5.50;3.00;;;;;;;3.06;62.04;100142.47;1694215;82;21772;-59
2022/02/06 03:32:41;;;;;;;6.53;3.12;;;;;;;3.18;61.91;100143.14;1711804;82;21050;-59
2022/02/06 03:35:09;;;;;;;11.57;3.60;;;;;;;3.05;62.01;100146.02;1745691;80;20967;-59
2022/02/06 03:37:35;;;;;;;10.43;3.67;;;;;;;2.99;62.20;100152.35;1750480;80;21072;-59
2022/02/06 03:40:05;;;;;;;6.58;3.30;;;;;;;3.00;62.22;100145.41;1768562;80;21056;-59
2022/02/06 03:42:52;;;;;;;8.90;3.50;;;;;;;2.97;62.21;100147.23;1766019;80;21059;-59
2022/02/06 03:45:06;;;;;;;5.90;3.37;;;;;;;2.96;62.30;100149.47;1732145;80;21669;-59
2022/02/06 03:47:44;;;;;;;13.78;3.85;;;;;;;2.97;62.30;100145.93;1762506;80;21058;-59
2022/02/06 03:50:03;;;;;;;7.03;3.05;;;;;;;2.96;62.37;100148.17;1738154;80;21578;-59
2022/02/06 03:52:44;;;;;;;6.95;2.98;;;;;;;2.95;62.44;100146.95;1739415;80;21588;-59
2022/02/06 03:55:01;;;;;;;9.50;3.95;;;;;;;2.94;62.50;100146.12;1765793;80;21086;-59
2022/02/06 03:57:28;;;;;;;7.05;3.60;;;;;;;2.94;62.52;100141.36;1756241;80;21054;-59
2022/02/06 03:59:54;;;;;;;7.25;3.77;;;;;;;2.94;62.60;100143.95;1763116;80;21106;-58
2022/02/06 04:02:21;;;;;;;9.05;3.65;;;;;;;2.95;62.59;100148.25;1742353;80;21061;-59
2022/02/06 04:04:47;;;;;;;8.10;3.33;;;;;;;2.93;62.62;100152.22;1735389;81;21074;-59
2022/02/06 04:07:14;;;;;;;8.40;3.52;;;;;;;2.95;62.64;100157.34;1760131;80;21035;-59
2022/02/06 04:09:47;;;;;;;8.75;3.92;;;;;;;2.94;62.71;100156.95;1765953;80;21156;-59
2022/02/06 04:12:12;;;;;;;8.55;3.60;;;;;;;2.96;62.66;100153.37;1739216;80;21521;-59
2022/02/06 04:14:59;;;;;;;6.87;3.70;;;;;;;2.95;62.72;100155.58;1723527;80;21164;-59
2022/02/06 04:17:21;;;;;;;7.47;3.50;;;;;;;2.97;62.67;100158.09;1749409;79;21124;-59
2022/02/06 04:19:40;;;;;;;6.72;3.47;;;;;;;2.92;62.79;100153.59;1759616;80;21114;-59
2022/02/06 04:22:06;;;;;;;7.92;3.72;;;;;;;2.93;62.76;100168.29;1759461;80;21105;-59
2022/02/06 04:24:33;;;;;;;9.28;3.30;;;;;;;2.92;62.86;100171.33;1766349;80;21067;-59
2022/02/06 04:27:00;;;;;;;9.08;3.85;;;;;;;2.93;62.81;100150.92;1759870;80;21085;-59
2022/02/06 04:29:26;;;;;;;7.05;2.98;;;;;;;2.93;62.81;100150.09;1757834;80;21084;-59
2022/02/06 04:31:53;;;;;;;6.83;3.45;;;;;;;2.98;62.78;100155.89;1713135;81;21059;-58
2022/02/06 04:34:24;;;;;;;6.75;2.92;;;;;;;2.98;62.75;100158.02;1715394;82;21034;-59
2022/02/06 04:37:03;;;;;;;11.95;3.30;;;;;;;3.00;62.71;100151.45;1715187;81;21062;-59
2022/02/06 04:52:46;;;;;;;10.05;3.50;;;;;;;3.11;62.49;100168.63;1736002;81;21101;-58
2022/02/06 04:54:59;;;;;;;6.72;3.45;;;;;;;3.10;62.49;100177.80;1733540;80;21105;-59
2022/02/06 05:21:49;;;;;;;7.70;3.35;;;;;;;3.14;62.37;100187.97;1706869;82;21030;-59
2022/02/06 05:24:31;;;;;;;7.40;3.58;;;;;;;3.14;62.39;100189.27;1708449;82;21059;-58
2022/02/06 05:26:50;;;;;;;7.67;3.75;;;;;;;3.15;62.36;100205.23;1731350;81;21659;-58
2022/02/06 05:31:44;;;;;;;8.10;3.70;;;;;;;3.16;62.40;100201.73;1730432;80;21077;-58
2022/02/06 05:34:04;;;;;;;7.87;4.22;;;;;;;3.14;62.40;100199.67;1705645;82;21209;-59
2022/02/06 05:36:30;;;;;;;9.50;4.40;;;;;;;3.14;62.38;100195.77;1711114;81;21064;-59
2022/02/06 05:38:57;;;;;;;7.67;4.35;;;;;;;3.19;62.33;100206.37;1740577;81;21071;-59
2022/02/06 05:41:25;;;;;;;7.55;4.05;;;;;;;3.22;62.20;100201.02;1734973;80;21843;-59
2022/02/06 05:43:51;;;;;;;7.28;3.62;;;;;;;3.31;62.11;100199.22;1736143;80;21473;-59
2022/02/06 05:46:18;;;;;;;9.65;4.12;;;;;;;3.38;61.94;100205.80;1737123;80;21219;-59
2022/02/06 05:48:44;;;;;;;10.68;4.30;;;;;;;3.35;61.85;100205.49;1742238;80;21091;-59
2022/02/06 05:51:12;;;;;;;6.95;3.70;;;;;;;3.33;61.86;100207.34;1739341;80;21451;-59
2022/02/06 05:53:40;;;;;;;7.47;3.72;;;;;;;3.31;61.89;100223.49;1687876;81;21055;-59
2022/02/06 05:56:06;;;;;;;9.60;4.00;;;;;;;3.30;61.89;100210.09;1738786;82;21133;-60
2022/02/06 05:58:33;;;;;;;10.05;4.08;;;;;;;3.30;61.88;100209.27;1741215;80;21092;-60
2022/02/06 06:00:59;;;;;;;8.63;4.17;;;;;;;3.26;61.96;100204.69;1737980;81;20973;-59
2022/02/06 06:03:26;;;;;;;7.50;3.80;;;;;;;3.28;61.96;100209.34;1708875;82;21084;-59
2022/02/06 06:05:53;;;;;;;8.60;4.60;;;;;;;3.23;62.05;100218.28;1733950;80;21043;-58
2022/02/06 06:08:20;;;;;;;10.35;4.40;;;;;;;3.22;62.12;100215.33;1735690;80;20911;-59
2022/02/06 06:10:47;;;;;;;7.25;4.08;;;;;;;3.20;62.18;100215.41;1736631;81;21087;-59
2022/02/06 06:13:13;;;;;;;8.25;3.45;;;;;;;3.23;62.08;100211.78;1713541;82;20976;-59
2022/02/06 06:15:40;;;;;;;8.80;4.25;;;;;;;3.20;62.22;100215.41;1741729;80;21033;-60
2022/02/06 06:18:08;;;;;;;8.00;4.28;;;;;;;3.25;62.15;100219.07;1741650;81;21011;-60
2022/02/06 06:20:37;;;;;;;8.08;3.37;;;;;;;3.23;62.16;100218.28;1712184;81;20986;-59
2022/02/06 06:23:03;;;;;;;7.83;4.08;;;;;;;3.25;62.13;100217.77;1733106;81;21969;-61
2022/02/06 06:25:37;;;;;;;11.00;4.12;;;;;;;3.22;62.11;100220.05;1734262;80;21646;-62
2022/02/06 06:27:59;;;;;;;7.83;3.72;;;;;;;3.21;62.11;100214.94;1712631;82;21004;-61
2022/02/06 06:30:27;;;;;;;8.55;3.80;;;;;;;3.20;62.18;100216.70;1736054;80;21048;-59
2022/02/06 06:32:55;;;;;;;7.65;3.52;;;;;;;3.20;62.17;100219.77;1754133;80;21028;-59
2022/02/06 06:35:21;;;;;;;8.88;3.95;;;;;;;3.22;62.14;100226.55;1753041;80;21217;-59
2022/02/06 06:37:49;;;;;;;10.25;4.12;;;;;;;3.25;62.03;100229.00;1761413;80;21043;-60
2022/02/06 06:40:16;;;;;;;6.53;3.60;;;;;;;3.26;62.04;100219.44;1706254;82;21746;-59
2022/02/06 06:42:44;;;;;;;8.28;3.55;;;;;;;3.31;61.88;100218.30;1692990;82;21083;-60
2022/02/06 06:45:11;;;;;;;7.67;3.83;;;;;;;3.40;61.66;100214.36;1762153;80;21047;-61
2022/02/06 06:47:37;;;;;;;10.10;4.50;;;;;;;3.46;61.57;100217.95;1739239;80;21071;-60
2022/02/06 06:50:05;;;;;;;8.25;4.25;;;;;;;3.49;61.49;100219.53;1757021;80;20980;-59
2022/02/06 06:52:31;;;;;;;12.95;5.08;;;;;;;3.50;61.34;100222.05;1737023;80;21118;-59
2022/02/06 06:55:02;;;;;;;10.32;4.65;;;;;;;3.50;61.24;100214.72;1753306;80;20996;-59
2022/02/06 06:57:31;;;;;;;12.65;4.55;;;;;;;3.50;61.28;100209.05;1750399;80;21039;-60
2022/02/06 07:04:49;;;;;;;9.03;4.75;;;;;;;3.56;61.13;100222.64;1755119;80;21075;-60
2022/02/06 07:07:17;;;;;;;8.53;4.17;;;;;;;3.57;61.08;100221.73;1759865;80;21039;-60
2022/02/06 07:09:43;;;;;;;10.43;4.42;;;;;;;3.59;61.02;100219.88;1755220;80;21390;-59
2022/02/06 07:12:13;;;;;;;9.78;4.40;;;;;;;3.63;60.98;100212.28;1735171;80;21193;-59
2022/02/06 07:14:43;;;;;;;7.37;4.25;;;;;;;3.67;60.96;100220.31;1754019;80;21503;-59
2022/02/06 07:17:10;;;;;;;13.08;4.83;;;;;;;3.73;60.70;100219.96;1737881;80;20988;-59
2022/02/06 07:19:38;;;;;;;8.75;4.37;;;;;;;3.75;60.67;100224.64;1755178;80;21358;-59
2022/02/06 07:22:10;;;;;;;8.18;3.98;;;;;;;3.77;60.42;100218.89;1752870;80;20940;-60
2022/02/06 07:24:37;;;;;;;8.83;4.08;;;;;;;3.78;60.26;100223.16;1754599;80;21182;-59
2022/02/06 07:27:15;;;;;;;7.72;4.08;;;;;;;3.78;60.05;100226.23;1758287;80;21020;-59
2022/02/06 07:29:33;;;;;;;7.78;4.30;;;;;;;3.74;60.11;100215.15;1749535;80;21001;-59
2022/02/06 07:32:00;;;;;;;7.40;4.05;;;;;;;3.77;59.98;100225.87;1741102;80;21101;-60
2022/02/06 07:34:27;;;;;;;9.48;4.00;;;;;;;3.75;59.96;100227.25;1763071;80;21047;-59
2022/02/06 07:36:53;;;;;;;9.08;3.77;;;;;;;3.79;59.96;100225.31;1761353;80;21221;-59
2022/02/06 07:39:20;;;;;;;7.42;3.62;;;;;;;3.79;59.92;100220.11;1764426;80;21070;-60
2022/02/06 07:41:46;;;;;;;7.30;3.75;;;;;;;3.79;59.78;100232.66;1737146;80;21049;-59
2022/02/06 07:44:13;;;;;;;7.97;4.08;;;;;;;3.77;59.73;100220.19;1764922;80;21653;-59
2022/02/06 07:46:46;;;;;;;7.87;4.35;;;;;;;3.77;59.72;100228.00;1736512;80;21053;-59
2022/02/06 07:49:12;;;;;;;8.40;4.12;;;;;;;3.77;59.71;100221.49;1765209;80;21233;-59
2022/02/06 07:51:39;;;;;;;8.05;4.05;;;;;;;3.75;59.65;100222.05;1766949;80;21109;-59
2022/02/06 07:54:06;;;;;;;7.80;3.45;;;;;;;3.77;59.73;100222.80;1766136;80;21645;-59
2022/02/06 07:56:33;;;;;;;7.83;3.40;;;;;;;3.82;59.79;100218.17;1767922;80;21715;-62
2022/02/06 07:58:59;;;;;;;11.22;4.22;;;;;;;3.87;59.59;100225.27;1768690;80;21750;-63
2022/02/06 08:01:26;;;;;;;9.70;3.92;;;;;;;3.93;59.40;100214.14;1762316;80;22693;-60
2022/02/06 08:03:53;;;;;;;7.80;4.08;;;;;;;3.99;59.16;100213.34;1765300;80;21693;-60
2022/02/06 08:06:20;;;;;;;8.35;3.77;;;;;;;4.04;58.83;100233.45;1765118;80;21035;-60
2022/02/06 08:08:47;;;;;;;7.95;3.72;;;;;;;4.03;58.77;100224.42;1746120;80;21086;-61
2022/02/06 08:11:15;;;;;;;7.28;3.95;;;;;;;4.02;58.69;100228.80;1764238;80;21082;-62
2022/02/06 08:13:45;;;;;;;9.80;3.98;;;;;;;4.01;58.58;100234.09;1764858;80;21129;-61
2022/02/06 08:16:10;;;;;;;9.00;3.90;;;;;;;4.00;58.58;100237.16;1771015;80;21077;-60
2022/02/06 08:18:40;;;;;;;10.72;4.10;;;;;;;4.02;58.54;100221.46;1770991;80;21820;-64
2022/02/06 08:21:11;;;;;;;7.00;3.52;;;;;;;4.02;58.52;100222.29;1766506;79;21081;-62
2022/02/06 08:23:38;;;;;;;9.73;4.08;;;;;;;4.04;58.48;100226.11;1763223;80;21046;-62
2022/02/06 08:26:05;;;;;;;6.85;3.42;;;;;;;4.08;58.54;100227.61;1772606;80;22033;-62
2022/02/06 08:28:33;;;;;;;8.65;4.35;;;;;;;4.10;58.30;100221.84;1771849;79;21090;-61
2022/02/06 08:31:04;;;;;;;9.30;4.62;;;;;;;4.10;58.05;100230.95;1762980;80;21081;-60
2022/02/06 08:33:31;;;;;;;8.08;3.72;;;;;;;4.10;58.11;100234.86;1746613;80;21074;-60
2022/02/06 08:35:58;;;;;;;8.30;4.00;;;;;;;4.16;58.04;100223.29;1770625;79;21508;-61
2022/02/06 08:38:25;;;;;;;8.20;4.45;;;;;;;4.21;58.01;100229.91;1770632;80;21112;-61
2022/02/06 08:40:52;;;;;;;10.00;4.50;;;;;;;4.24;57.96;100225.84;1768217;80;21062;-58
2022/02/06 08:43:20;;;;;;;9.88;4.65;;;;;;;4.31;57.73;100224.20;1762189;80;21094;-59
2022/02/06 08:45:46;;;;;;;9.03;3.75;;;;;;;4.37;57.65;100228.59;1763908;80;21069;-60
2022/02/06 08:48:13;;;;;;;7.90;3.70;;;;;;;4.43;57.56;100231.30;1740330;80;21126;-59
2022/02/06 08:50:40;;;;;;;13.15;4.45;;;;;;;4.46;57.17;100225.92;1767770;80;21160;-59
2022/02/06 08:53:07;;;;;;;8.55;3.90;;;;;;;4.48;57.08;100227.98;1758881;80;21026;-58
2022/02/06 08:55:34;;;;;;;8.50;3.83;;;;;;;4.52;56.99;100227.33;1745820;80;21027;-58
2022/02/06 08:58:01;;;;;;;9.55;4.50;;;;;;;4.53;56.97;100231.62;1762963;80;21038;-59
2022/02/06 09:00:28;;;;;;;8.60;4.17;;;;;;;4.53;56.82;100225.94;1742709;80;21077;-59
2022/02/06 09:02:55;;;;;;;8.20;4.08;;;;;;;4.53;56.68;100232.45;1769468;80;21039;-59
2022/02/06 09:05:23;;;;;;;8.28;4.83;;;;;;;4.50;56.78;100225.28;1769837;80;21015;-59
2022/02/06 09:07:49;;;;;;;7.87;3.67;;;;;;;4.49;56.71;100236.62;1685119;83;22447;-59
2022/02/06 09:10:19;;;;;;;9.25;4.17;;;;;;;4.45;56.68;100222.49;1709160;82;21494;-60
2022/02/06 09:12:51;;;;;;;9.93;4.28;;;;;;;4.49;56.66;100224.89;1681632;83;21175;-59
2022/02/06 09:15:14;;;;;;;11.75;4.62;;;;;;;4.54;56.56;100215.05;1713345;82;21095;-59
2022/02/06 09:17:42;;;;;;;8.08;3.85;;;;;;;4.55;56.02;100216.27;1709538;82;21106;-59
2022/02/06 09:20:10;;;;;;;9.45;4.22;;;;;;;4.55;56.18;100218.87;1692771;82;21041;-60
2022/02/06 09:22:36;;;;;;;8.40;4.20;;;;;;;4.57;56.29;100209.22;1711015;82;21613;-59
2022/02/06 09:25:05;;;;;;;9.03;4.40;;;;;;;4.63;56.31;100209.31;1711117;82;21042;-59
2022/02/06 09:27:35;;;;;;;8.10;3.70;;;;;;;4.72;56.06;100211.84;1716266;82;21101;-60
2022/02/06 09:30:00;;;;;;;7.15;3.67;;;;;;;4.78;55.77;100192.78;1696992;82;21110;-61
2022/02/06 09:37:19;;;;;;;8.78;3.85;;;;;;;4.91;55.39;100194.20;1764107;80;21065;-61
2022/02/06 09:39:45;;;;;;;8.33;3.87;;;;;;;4.95;55.05;100190.47;1758559;80;21127;-60
2022/02/06 09:42:11;;;;;;;6.95;3.92;;;;;;;4.97;54.78;100187.77;1764642;80;21093;-60
2022/02/06 09:44:39;;;;;;;9.40;4.28;;;;;;;5.01;54.90;100182.29;1769306;79;21098;-61
2022/02/06 09:47:06;;;;;;;8.55;3.72;;;;;;;5.09;54.83;100175.77;1768345;80;21079;-60
2022/02/06 09:49:34;;;;;;;7.90;3.58;;;;;;;5.17;54.37;100172.23;1735762;80;21003;-61
2022/02/06 09:52:01;;;;;;;9.88;3.95;;;;;;;5.20;54.11;100172.05;1772434;80;21154;-61
2022/02/06 09:54:29;;;;;;;8.58;3.83;;;;;;;5.20;54.08;100178.09;1738300;80;21027;-60
2022/02/06 09:56:59;;;;;;;11.55;4.12;;;;;;;5.21;54.13;100175.01;1764282;80;21039;-61
2022/02/06 09:59:25;;;;;;;8.33;4.50;;;;;;;5.23;53.81;100179.69;1769250;80;20988;-59
2022/02/06 10:01:55;;;;;;;7.03;3.87;;;;;;;5.24;53.73;100176.13;1773961;79;21046;-59
2022/02/06 10:04:27;;;;;;;8.80;3.52;;;;;;;5.29;53.81;100175.38;1769955;80;21170;-60
2022/02/06 10:07:09;;;;;;;7.37;3.15;;;;;;;5.32;53.67;100169.98;1754477;80;21067;-60
2022/02/06 10:10:01;;;;;;;8.80;3.77;;;;;;;5.31;53.47;100167.02;1765628;80;22266;-60
2022/02/06 10:12:30;;;;;;;7.67;3.92;;;;;;;5.33;53.24;100164.29;1760190;80;22250;-59
2022/02/06 10:14:56;;;;;;;8.08;3.27;;;;;;;5.36;53.12;100164.10;1682058;82;21089;-60
2022/02/06 10:17:24;;;;;;;7.60;3.12;;;;;;;5.34;52.74;100145.94;1765479;80;21155;-59
2022/02/06 10:19:53;;;;;;;10.50;4.03;;;;;;;5.36;52.87;100148.00;1765347;80;21595;-58
2022/02/06 10:22:36;;;;;;;7.12;3.40;;;;;;;5.40;52.48;100148.64;1762271;80;20980;-60
2022/02/06 10:24:59;;;;;;;8.95;3.62;;;;;;;5.38;51.77;100139.61;1700802;82;22103;-61
2022/02/06 10:30:41;;;;;;;5.90;2.95;;;;;;;5.37;51.88;100127.48;1758978;80;21178;-60
2022/02/06 10:33:20;;;;;;;6.35;3.17;;;;;;;5.40;51.64;100135.60;1749999;80;21099;-61
2022/02/06 10:35:49;;;;;;;8.68;3.22;;;;;;;5.39;51.60;100137.83;1747914;80;21062;-61
2022/02/06 10:38:22;;;;;;;9.33;3.08;;;;;;;5.40;51.50;100141.65;1753525;80;21063;-61
2022/02/06 10:41:17;;;;;;;9.78;3.37;;;;;;;5.39;51.39;100150.39;1749555;80;21054;-60
2022/02/06 10:44:05;;;;;;;9.65;3.52;;;;;;;5.35;50.85;100146.80;1750605;80;21135;-61
2022/02/06 10:46:36;;;;;;;6.45;3.08;;;;;;;5.28;51.03;100140.25;1748423;81;21062;-60
2022/02/06 10:49:06;;;;;;;8.33;3.35;;;;;;;5.24;51.29;100130.48;1746928;80;21079;-60
2022/02/06 10:51:49;;;;;;;7.65;2.77;;;;;;;5.31;51.24;100122.67;1751300;80;21055;-60
2022/02/06 10:54:29;;;;;;;5.62;2.55;;;;;;;5.40;51.31;100126.47;1743277;81;21040;-60
2022/02/06 10:57:10;;;;;;;8.90;3.37;;;;;;;5.48;50.81;100119.44;1751455;81;21037;-60
2022/02/06 10:59:52;;;;;;;8.45;3.72;;;;;;;5.49;50.76;100118.05;1749669;81;21134;-60
2022/02/06 11:02:57;;;;;;;6.87;3.15;;;;;;;5.52;50.65;100107.89;1749755;80;21046;-60
2022/02/06 11:05:20;;;;;;;6.95;3.00;;;;;;;5.54;50.62;100122.50;1748385;79;21086;-59
2022/02/06 11:07:54;;;;;;;9.68;3.17;;;;;;;5.56;50.28;100114.58;1728300;81;21008;-60
2022/02/06 11:10:24;;;;;;;6.50;3.05;;;;;;;5.63;50.23;100118.95;1754230;80;22275;-61
2022/02/06 11:12:56;;;;;;;9.15;3.15;;;;;;;5.72;49.69;100108.76;1753307;80;21039;-60
2022/02/06 11:15:45;;;;;;;7.47;2.90;;;;;;;5.90;49.51;100118.94;1750146;81;21056;-60
2022/02/06 11:18:22;;;;;;;5.90;2.70;;;;;;;5.98;49.12;100109.34;1749422;79;21059;-60
2022/02/06 11:21:03;;;;;;;6.12;2.67;;;;;;;6.08;49.16;100109.94;1753010;80;22204;-59
2022/02/06 11:23:45;;;;;;;7.20;2.83;;;;;;;6.18;48.72;100100.20;1645612;83;21014;-59
2022/02/06 11:26:14;;;;;;;6.95;3.20;;;;;;;6.22;48.60;100112.97;1678806;84;21036;-59
2022/02/06 11:28:40;;;;;;;8.20;3.12;;;;;;;6.14;48.88;100109.55;1729878;81;21083;-59
2022/02/06 11:31:07;;;;;;;7.05;2.85;;;;;;;6.10;49.10;100096.78;1746207;80;21112;-59
2022/02/06 11:33:35;;;;;;;9.93;3.40;;;;;;;6.05;49.36;100098.41;1753296;80;21019;-59
2022/02/06 11:36:09;;;;;;;8.55;3.90;;;;;;;6.04;49.58;100098.03;1760747;80;21144;-59
2022/02/06 11:44:46;;;;;;;9.63;4.17;;;;;;;6.01;49.72;100099.53;1731425;80;21145;-59
2022/02/06 11:47:21;;;;;;;6.40;3.15;;;;;;;5.94;49.79;100094.31;1709008;80;21603;-60
2022/02/06 11:49:50;;;;;;;11.00;4.12;;;;;;;5.84;50.26;100088.85;1738672;80;21012;-60
2022/02/06 11:52:16;;;;;;;10.45;4.37;;;;;;;5.81;50.46;100099.97;1752746;80;21082;-59
2022/02/06 11:54:52;;;;;;;6.83;3.08;;;;;;;5.76;50.64;100078.89;1763162;80;21124;-59
2022/02/06 11:57:27;;;;;;;8.25;3.65;;;;;;;5.75;50.87;100080.33;1687687;82;28436;-59
2022/02/06 12:00:08;;;;;;;8.55;3.65;;;;;;;5.76;50.86;100073.67;1676966;82;21029;-60
2022/02/06 12:02:46;;;;;;;16.50;3.72;;;;;;;5.77;50.75;100077.97;1759314;80;22179;-59
2022/02/06 12:05:28;;;;;;;14.45;4.15;;;;;;;5.85;50.77;100076.62;1757137;80;20964;-59
2022/02/06 12:08:10;;;;;;;7.30;3.70;;;;;;;5.92;50.56;100075.31;1753905;80;21030;-60
2022/02/06 12:11:01;;;;;;;8.03;3.17;;;;;;;5.99;50.58;100067.46;1763933;79;21073;-60
2022/02/06 12:13:31;;;;;;;7.25;3.60;;;;;;;6.12;50.60;100064.41;1742235;80;21145;-60
2022/02/06 12:16:01;;;;;;;9.58;4.30;;;;;;;6.37;50.09;100068.00;1764050;79;22311;-60
2022/02/06 12:18:40;;;;;;;9.53;4.17;;;;;;;6.52;49.88;100059.56;1762445;80;22255;-60
2022/02/06 12:21:21;;;;;;;7.97;4.58;;;;;;;6.65;49.57;100071.33;1765486;80;21010;-60
2022/02/06 12:23:58;;;;;;;8.73;4.33;;;;;;;6.73;49.40;100062.49;1763441;80;21069;-60
2022/02/06 12:26:31;;;;;;;7.87;3.87;;;;;;;6.81;49.21;100058.05;1698982;82;21070;-59
2022/02/06 12:29:09;;;;;;;8.90;4.55;;;;;;;6.88;48.84;100066.66;1760959;79;21118;-60
2022/02/06 12:32:00;;;;;;;8.68;3.95;;;;;;;6.86;49.22;100059.39;1735164;80;21276;-60
2022/02/06 12:37:33;;;;;;;10.48;3.83;;;;;;;7.01;48.78;100071.02;1749781;81;21064;-61
2022/02/06 12:40:12;;;;;;;11.55;4.12;;;;;;;7.08;48.39;100063.13;1755508;80;21067;-60
2022/02/06 12:42:46;;;;;;;8.30;3.50;;;;;;;7.10;48.34;100059.09;1725985;81;21141;-59
2022/02/06 12:45:18;;;;;;;9.48;4.03;;;;;;;7.12;48.22;100048.87;1746614;80;21043;-60
2022/02/06 12:47:48;;;;;;;7.53;3.95;;;;;;;7.12;48.37;100049.34;1708691;81;21086;-60
2022/02/06 12:50:30;;;;;;;6.97;3.92;;;;;;;7.08;48.32;100044.81;1749669;80;21289;-60
2022/02/06 12:52:57;;;;;;;7.80;3.80;;;;;;;7.03;48.14;100039.06;1741453;81;21054;-60
2022/02/06 12:55:29;;;;;;;9.25;3.80;;;;;;;6.95;48.40;100046.62;1752985;80;21206;-59
2022/02/06 12:57:56;;;;;;;6.83;3.83;;;;;;;6.85;48.59;100053.78;1706410;81;21019;-59
2022/02/06 13:03:23;;;;;;;6.97;3.75;;;;;;;6.80;48.94;100051.14;1756996;81;21063;-60
2022/02/06 13:06:03;;;;;;;8.70;4.05;;;;;;;6.65;49.18;100043.39;1754705;80;21093;-60
2022/02/06 13:08:31;;;;;;;9.73;4.20;;;;;;;6.50;49.54;100049.69;1752140;81;21134;-59
2022/02/06 13:11:03;;;;;;;7.87;4.10;;;;;;;6.35;50.00;100037.66;1751910;81;21058;-59
2022/02/06 13:13:37;;;;;;;11.05;4.33;;;;;;;6.28;50.26;100035.45;1746827;80;21067;-59
2022/02/06 13:21:22;;;;;;;9.78;4.72;;;;;;;6.21;50.72;100044.66;1756643;80;21170;-59
2022/02/06 13:24:18;;;;;;;7.15;4.35;;;;;;;6.17;50.90;100039.73;1647572;81;21183;-60
2022/02/06 13:26:28;;;;;;;9.50;4.92;;;;;;;6.13;50.89;100039.94;1727305;80;21048;-59
2022/02/06 13:28:57;;;;;;;9.95;4.37;;;;;;;6.08;50.94;100049.86;1746290;80;21043;-59
2022/02/06 13:34:15;;;;;;;8.25;4.47;;;;;;;6.01;51.12;100032.10;1718138;82;22160;-60
2022/02/06 13:39:00;;;;;;;7.35;4.05;;;;;;;5.96;51.14;100033.70;1739449;82;21023;-60
2022/02/06 13:41:26;;;;;;;9.38;3.77;;;;;;;5.93;51.29;100027.34;1741500;80;21641;-59
2022/02/06 13:43:55;;;;;;;10.30;4.47;;;;;;;5.93;51.37;100033.42;1740351;80;21082;-59
2022/02/06 13:46:27;;;;;;;13.13;4.75;;;;;;;6.00;51.46;100026.50;1740389;80;21157;-59
2022/02/06 13:48:54;;;;;;;10.58;4.87;;;;;;;6.43;50.88;100023.61;1741085;80;21042;-60
2022/02/06 13:51:33;;;;;;;9.15;4.72;;;;;;;6.96;49.75;100027.34;1710126;82;21854;-61
2022/02/06 13:54:02;;;;;;;8.13;3.83;;;;;;;7.29;48.95;100031.13;1740880;80;21112;-60
2022/02/06 13:56:31;;;;;;;9.25;4.67;;;;;;;7.58;48.18;100022.00;1714442;82;21015;-60
2022/02/06 13:59:10;;;;;;;9.73;4.50;;;;;;;7.66;47.65;100033.69;1737917;80;22020;-60
2022/02/06 14:01:53;;;;;;;8.83;3.92;;;;;;;7.75;47.59;100029.07;1708809;82;20978;-61
2022/02/06 14:04:31;;;;;;;8.10;4.00;;;;;;;8.06;47.27;100030.73;1704426;81;20979;-60